Time;durP1;ratioP1;P1;durP2;ratioP2;P2;SDS_P1;SDS_P2;PMS_P1;PMS_P2;Temp;Humidity;BMP_temperature;BMP_pressure;BME280_temperature;BME280_humidity;BME280_pressure;Samples;Min_cycle;Max_cycle;Signal;HPM_P1;HPM_P2
2022/07/03 00:04:12;;;;;;;;;;;;;;;16.09;95.99;95923.16;10477313;28;1827;-74
2022/07/03 00:09:15;;;;;;;;;;;;;;;16.09;96.82;95923.16;10471235;28;1910;-76
2022/07/03 00:14:19;;;;;;;;;;;;;;;16.11;96.79;95915.53;10480636;28;1861;-75
2022/07/03 00:19:22;;;;;;;;;;;;;;;16.28;96.56;95920.28;10481732;28;1893;-75
2022/07/03 00:24:26;;;;;;;;;;;;;;;16.38;95.42;95911.13;10482807;28;1797;-76
2022/07/03 00:29:30;;;;;;;;;;;;;;;16.48;95.23;95908.19;10477806;28;1906;-75
2022/07/03 00:34:34;;;;;;;;;;;;;;;16.49;94.73;95917.94;10472694;28;1868;-77
2022/07/03 00:39:38;;;;;;;;;;;;;;;16.52;95.15;95908.38;10477769;28;1820;-73
2022/07/03 00:44:41;;;;;;;;;;;;;;;16.49;95.07;95909.78;10466493;28;1975;-76
2022/07/03 00:49:45;;;;;;;;;;;;;;;16.46;95.08;95904.97;10481584;28;1967;-75
2022/07/03 00:54:49;;;;;;;;;;;;;;;16.45;94.93;95912.31;10477175;28;2070;-75
2022/07/03 00:59:52;;;;;;;;;;;;;;;16.40;94.56;95911.63;10479000;28;2446;-74
2022/07/03 01:04:56;;;;;;;;;;;;;;;16.29;95.67;95905.66;10475927;28;1761;-73
2022/07/03 01:09:59;;;;;;;;;;;;;;;16.10;96.77;95897.66;10477213;28;2017;-75
2022/07/03 01:15:04;;;;;;;;;;;;;;;15.97;97.30;95908.53;10466239;28;1990;-75
2022/07/03 01:20:11;;;;;;;;;;;;;;;15.91;98.31;95905.94;10474162;28;1967;-74
2022/07/03 01:25:14;;;;;;;;;;;;;;;15.89;97.61;95904.63;10476415;28;1943;-74
2022/07/03 01:30:38;;;;;;;;;;;;;;;15.77;99.30;95898.91;10473491;28;2058;-75
2022/07/03 01:36:01;;;;;;;;;;;;;;;15.71;100.00;95894.72;10465625;28;2053;-74
2022/07/03 01:41:04;;;;;;;;;;;16.70;99.90;;;15.81;100.00;95897.22;10469479;28;2038;-75
2022/07/03 01:46:07;;;;;;;;;;;16.70;99.90;;;16.04;100.00;95896.19;10478009;28;1970;-76
2022/07/03 01:51:10;;;;;;;;;;;;;;;16.13;99.60;95897.03;10475688;28;2026;-75
2022/07/03 01:56:14;;;;;;;;;;;;;;;16.14;99.70;95893.22;10478883;28;1951;-75
2022/07/03 02:01:17;;;;;;;;;;;;;;;16.03;100.00;95885.63;10480609;28;1945;-75
2022/07/03 02:06:21;;;;;;;;;;;;;;;15.93;100.00;95892.06;10479895;28;1865;-74
2022/07/03 02:11:24;;;;;;;;;;;16.70;99.90;;;15.84;100.00;95899.31;10483194;28;2008;-75
2022/07/03 02:16:27;;;;;;;;;;;16.80;99.90;;;15.80;100.00;95898.31;10479928;28;1911;-74
2022/07/03 02:21:31;;;;;;;;;;;16.70;99.90;;;15.78;100.00;95901.34;10493179;28;1994;-75
2022/07/03 02:26:34;;;;;;;;;;;16.70;99.90;;;15.79;100.00;95902.94;10476151;28;1875;-73
2022/07/03 02:31:37;;;;;;;;;;;16.70;99.90;;;15.92;100.00;95904.03;10479390;28;2018;-76
2022/07/03 02:36:40;;;;;;;;;;;16.80;99.90;;;15.99;100.00;95909.84;10492609;28;2024;-73
2022/07/03 02:41:44;;;;;;;;;;;16.80;99.90;;;16.00;100.00;95903.31;10472198;28;2051;-75
2022/07/03 02:46:49;;;;;;;;;;;16.80;99.90;;;15.82;100.00;95896.09;10481728;28;1930;-75
2022/07/03 02:51:57;;;;;;;;;;;16.80;99.90;;;15.78;100.00;95912.19;10476610;28;1935;-75
2022/07/03 02:57:01;;;;;;;;;;;16.60;99.90;;;15.75;100.00;95915.50;10488805;28;1998;-75
2022/07/03 03:02:04;;;;;;;;;;;16.60;99.90;;;15.79;100.00;95913.00;10478642;28;1725;-75
2022/07/03 03:07:07;;;;;;;;;;;16.60;99.90;;;15.67;100.00;95916.19;10476123;28;1873;-75
2022/07/03 03:12:11;;;;;;;;;;;16.70;99.90;;;15.65;100.00;95924.63;10476748;28;2283;-75
2022/07/03 03:17:16;;;;;;;;;;;16.50;99.90;;;15.57;100.00;95928.00;10479295;28;1911;-75
2022/07/03 03:22:19;;;;;;;;;;;16.40;99.90;;;15.49;100.00;95936.03;10477419;28;1915;-74
2022/07/03 03:27:22;;;;;;;;;;;16.50;99.90;;;15.42;100.00;95947.28;10478202;28;1959;-75
2022/07/03 03:32:25;;;;;;;;;;;16.30;99.90;;;15.40;100.00;95944.06;10471502;28;1931;-76
2022/07/03 03:37:30;;;;;;;;;;;16.20;99.90;;;15.47;100.00;95944.47;10477454;28;2063;-75
2022/07/03 03:42:33;;;;;;;;;;;16.30;99.90;;;15.54;100.00;95949.50;10472271;28;1936;-75
2022/07/03 03:47:36;;;;;;;;;;;;;;;15.72;100.00;95935.06;10477595;28;1994;-76
2022/07/03 03:52:39;;;;;;;;;;;16.40;99.90;;;15.97;100.00;95935.63;10472751;28;1987;-76
2022/07/03 03:57:43;;;;;;;;;;;16.50;99.90;;;16.26;100.00;95944.22;10477845;28;2077;-74
2022/07/03 04:02:46;;;;;;;;;;;16.80;99.90;;;16.43;100.00;95940.88;10469147;28;1990;-74
2022/07/03 04:07:48;;;;;;;;;;;16.90;99.90;;;16.41;100.00;95956.63;10475136;28;2005;-75
2022/07/03 04:12:52;;;;;;;;;;;17.00;99.90;;;16.64;100.00;95955.56;10472309;28;1928;-75
2022/07/03 04:17:55;;;;;;;;;;;17.10;99.90;;;17.01;100.00;95959.84;10478883;28;2042;-74
2022/07/03 04:22:58;;;;;;;;;;;17.50;99.90;;;17.29;100.00;95959.69;10471302;28;2031;-74
2022/07/03 04:28:01;;;;;;;;;;;17.60;99.90;;;17.60;100.00;95959.66;10474664;28;1888;-74
2022/07/03 04:33:22;;;;;;;;;;;18.00;99.90;;;17.89;100.00;95947.50;10470155;28;1982;-74
2022/07/03 04:38:25;;;;;;;;;;;18.30;99.90;;;18.28;99.13;95952.06;10472645;28;2025;-76
2022/07/03 04:43:28;;;;;;;;;;;18.70;99.90;;;18.66;96.87;95951.44;10474369;28;1969;-75
2022/07/03 04:48:31;;;;;;;;;;;18.90;99.90;;;18.97;94.96;95965.72;10473062;28;2014;-75
2022/07/03 04:53:34;;;;;;;;;;;19.30;99.90;;;19.41;92.53;95961.78;10475400;28;1914;-75
2022/07/03 04:58:37;;;;;;;;;;;19.60;99.90;;;19.69;90.59;95969.56;10484203;28;2043;-75
2022/07/03 05:03:40;;;;;;;;;;;20.00;99.90;;;19.91;89.04;95963.84;10477824;28;1916;-76
2022/07/03 05:08:43;;;;;;;;;;;20.30;99.90;;;20.43;87.02;95969.00;10483456;28;2330;-75
2022/07/03 05:13:47;;;;;;;;;;;20.50;99.90;;;20.71;83.43;95973.97;10480526;28;2028;-75
2022/07/03 05:18:50;;;;;;;;;;;20.60;99.90;;;20.73;84.11;95971.69;10480937;28;2034;-75
2022/07/03 05:23:53;;;;;;;;;;;21.10;99.90;;;20.71;83.60;95974.75;10478724;28;1781;-75
2022/07/03 05:28:57;;;;;;;;;;;21.20;99.90;;;20.96;81.65;95981.16;10477474;28;1848;-77
2022/07/03 05:33:59;;;;;;;;;;;21.30;99.90;;;21.02;80.23;95982.53;10484622;28;1978;-76
2022/07/03 05:44:23;;;;;;;;;;;21.70;99.90;;;21.54;78.65;95976.59;10477792;28;1912;-75
2022/07/03 05:49:26;;;;;;;;;;;21.90;99.90;;;21.80;77.37;95970.00;10485309;28;3138;-75
2022/07/03 05:54:29;;;;;;;;;;;22.00;99.90;;;22.45;73.65;95979.13;10477856;28;1917;-77
2022/07/03 05:59:32;;;;;;;;;;;22.20;99.90;;;22.66;73.01;95974.31;10481524;28;1911;-74
2022/07/03 06:04:35;;;;;;;;;;;22.80;99.90;;;23.17;69.75;95988.34;10477035;28;2025;-75
2022/07/03 06:09:38;;;;;;;;;;;23.10;99.90;;;23.20;69.19;95981.34;10475326;28;1960;-75
2022/07/03 06:14:42;;;;;;;;;;;23.40;99.90;;;23.36;67.35;95984.16;10478504;28;2354;-75
2022/07/03 06:19:45;;;;;;;;;;;23.60;99.90;;;23.71;64.67;95974.13;10477897;28;2003;-74
2022/07/03 06:24:48;;;;;;;;;;;23.90;99.90;;;24.02;64.03;95972.53;10489730;28;1948;-76
2022/07/03 06:29:51;;;;;;;;;;;24.10;99.90;;;23.93;60.03;95974.69;10483907;28;2078;-75
2022/07/03 06:34:54;;;;;;;;;;;24.30;99.90;;;24.48;60.00;95972.84;10491604;28;1891;-74
2022/07/03 06:39:57;;;;;;;;;;;24.50;99.90;;;24.83;57.53;95978.34;10480249;28;1935;-74
2022/07/03 06:45:00;;;;;;;;;;;24.90;99.90;;;25.13;55.71;95970.38;10475936;28;2017;-75
2022/07/03 06:50:03;;;;;;;;;;;25.10;99.90;;;25.12;54.58;95977.00;10475861;28;2367;-75
2022/07/03 06:55:05;;;;;;;;;;;25.30;99.90;;;24.67;53.87;95977.59;10470277;28;2015;-75
2022/07/03 07:00:08;;;;;;;;;;;25.30;99.90;;;24.77;53.74;95979.78;10478713;28;2025;-75
2022/07/03 07:05:11;;;;;;;;;;;25.30;99.90;;;24.90;54.16;95983.22;10467981;28;2250;-76
2022/07/03 07:10:14;;;;;;;;;;;25.30;99.90;;;25.05;53.82;95988.66;10476597;28;1928;-75
2022/07/03 07:15:18;;;;;;;;;;;25.40;99.90;;;25.33;53.18;95985.69;10471126;28;1933;-76
2022/07/03 07:20:22;;;;;;;;;;;25.80;99.90;;;25.67;52.43;95988.69;10473337;28;1942;-75
2022/07/03 07:25:25;;;;;;;;;;;26.00;99.90;;;25.70;51.23;95982.44;10472978;28;1899;-76
2022/07/03 07:30:28;;;;;;;;;;;26.10;99.90;;;25.50;52.96;95986.38;10470591;28;2000;-75
2022/07/03 07:35:31;;;;;;;;;;;26.00;99.90;;;25.54;54.45;95987.25;10471110;28;1969;-77
2022/07/03 07:40:34;;;;;;;;;;;26.00;99.90;;;25.36;53.61;95975.91;10474009;28;1986;-76
2022/07/03 07:45:38;;;;;;;;;;;26.00;99.90;;;25.84;54.38;95984.69;10473369;28;1936;-76
2022/07/03 07:50:41;;;;;;;;;;;26.10;99.90;;;25.75;52.44;95976.66;10479054;28;2056;-76
2022/07/03 07:55:46;;;;;;;;;;;26.30;99.90;;;26.40;51.59;95982.09;10475628;28;1989;-77
2022/07/03 08:06:07;;;;;;;;;;;26.80;99.90;;;26.52;49.14;95989.34;10472273;28;1990;-76
2022/07/03 08:11:09;;;;;;;;;;;27.00;99.90;;;26.60;48.09;95982.00;10472418;28;1946;-75
2022/07/03 08:16:14;;;;;;;;;;;26.90;99.90;;;26.73;46.87;95982.56;10471085;28;1918;-76
2022/07/03 08:21:16;;;;;;;;;;;27.10;99.90;;;26.83;48.21;95982.69;10473214;28;1980;-74
2022/07/03 08:26:19;;;;;;;;;;;27.20;99.90;;;27.24;46.11;95985.63;10471883;28;1868;-77
2022/07/03 08:31:23;;;;;;;;;;;;;;;27.01;46.13;95982.13;10480190;28;1981;-76
2022/07/03 08:36:27;;;;;;;;;;;;;;;26.87;45.31;95978.03;10483742;28;2134;-75
2022/07/03 08:41:30;;;;;;;;;;;;;;;26.58;44.77;95968.56;10483192;28;1926;-77
2022/07/03 08:46:34;;;;;;;;;;;;;;;27.10;45.55;95971.63;10479628;28;1914;-76
2022/07/03 08:51:37;;;;;;;;;;;;;;;26.94;45.30;95972.59;10489370;28;2178;-77
2022/07/03 08:56:41;;;;;;;;;;;;;;;26.90;44.42;95960.72;10481552;28;2121;-76
2022/07/03 09:01:44;;;;;;;;;;;;;;;27.11;43.21;95959.44;10479630;28;1962;-75
2022/07/03 09:06:47;;;;;;;;;;;;;;;27.07;41.92;95958.59;10482943;28;1958;-77
2022/07/03 09:11:58;;;;;;;;;;;;;;;27.00;41.52;95951.00;10471502;28;2116;-76
2022/07/03 09:17:01;;;;;;;;;;;;;;;27.31;39.80;95960.88;10479709;28;1880;-77
2022/07/03 09:22:05;;;;;;;;;;;;;;;27.48;39.52;95956.69;10510313;28;1962;-76
2022/07/03 09:27:09;;;;;;;;;;;;;;;27.26;39.72;95950.16;10491138;28;1915;-77
2022/07/03 09:32:13;;;;;;;;;;;;;;;27.76;38.00;95956.22;10479755;28;2019;-77
2022/07/03 09:37:17;;;;;;;;;;;;;;;27.78;36.64;95951.09;10475134;28;2098;-78
2022/07/03 09:42:20;;;;;;;;;;;;;;;27.25;37.36;95954.09;10476342;28;2074;-77
2022/07/03 09:47:24;;;;;;;;;;;;;;;27.27;36.58;95957.25;10482762;28;1978;-76
2022/07/03 09:52:28;;;;;;;;;;;;;;;27.18;37.34;95952.03;10479908;28;1906;-78
2022/07/03 09:57:32;;;;;;;;;;;;;;;27.65;36.58;95955.28;10477096;28;1817;-77
2022/07/03 10:02:36;;;;;;;;;;;;;;;27.82;35.71;95945.63;10475150;28;1812;-76
2022/07/03 10:07:40;;;;;;;;;;;;;;;27.82;37.11;95940.91;10482200;28;1812;-76
2022/07/03 10:12:44;;;;;;;;;;;;;;;27.31;37.49;95941.53;10475111;28;2029;-75
2022/07/03 10:17:47;;;;;;;;;;;;;;;27.49;38.80;95938.97;10475603;28;1823;-75
2022/07/03 10:22:51;;;;;;;;;;;;;;;27.26;37.42;95935.56;10479892;28;1910;-76
2022/07/03 10:27:54;;;;;;;;;;;;;;;27.52;35.73;95923.59;10473046;28;1805;-77
2022/07/03 10:32:59;;;;;;;;;;;;;;;27.72;35.88;95922.25;10474174;28;1914;-77
2022/07/03 10:38:03;;;;;;;;;;;;;;;28.19;36.19;95912.38;10478607;28;1903;-77
2022/07/03 10:48:42;;;;;;;;;;;;;;;30.02;32.24;95920.97;10491296;28;1658;-75
2022/07/03 10:53:45;;;;;;;;;;;;;;;30.42;29.46;95905.16;10490920;28;1975;-76
2022/07/03 10:58:48;;;;;;;;;;;;;;;30.62;26.31;95905.50;10481279;28;1810;-75
2022/07/03 11:03:52;;;;;;;;;;;;;;;30.73;26.65;95902.69;10478063;28;1829;-75
2022/07/03 11:08:57;;;;;;;;;;;;;;;31.28;26.56;95902.09;10470612;28;1856;-74
2022/07/03 11:14:00;;;;;;;;;;;;;;;30.81;25.59;95891.19;10470260;28;1987;-75
2022/07/03 11:19:03;;;;;;;;;;;;;;;31.06;24.46;95881.97;10476221;28;2004;-76
2022/07/03 11:24:07;;;;;;;;;;;;;;;30.86;23.96;95882.44;10475717;28;1976;-76
2022/07/03 11:29:11;;;;;;;;;;;;;;;30.82;25.83;95881.66;10476207;28;2177;-76
2022/07/03 11:34:15;;;;;;;;;;;;;;;30.48;25.80;95873.03;10471371;28;2071;-76
2022/07/03 11:39:20;;;;;;;;;;;;;;;29.95;26.50;95865.56;10473137;28;1785;-76
2022/07/03 11:44:24;;;;;;;;;;;;;;;29.60;26.68;95861.63;10473770;28;1795;-77
2022/07/03 11:49:28;;;;;;;;;;;;;;;29.58;25.99;95857.63;10476304;28;1831;-76
2022/07/03 11:54:31;;;;;;;;;;;;;;;29.49;25.74;95860.00;10472021;28;1988;-76
2022/07/03 11:59:36;;;;;;;;;;;;;;;29.27;26.42;95848.91;10465842;28;1785;-75
2022/07/03 12:04:40;;;;;;;;;;;;;;;29.18;25.53;95850.44;10470353;28;1822;-76
2022/07/03 12:09:45;;;;;;;;;;;;;;;29.36;25.73;95856.81;10481016;28;1877;-75
2022/07/03 12:14:48;;;;;;;;;;;;;;;29.14;26.39;95844.09;10476014;28;1935;-76
2022/07/03 12:19:53;;;;;;;;;;;;;;;29.39;28.11;95839.41;10476494;28;2042;-77
2022/07/03 12:24:57;;;;;;;;;;;;;;;29.87;27.83;95834.28;10478553;28;1844;-76
2022/07/03 12:30:01;;;;;;;;;;;;;;;30.06;27.63;95841.41;10471446;28;1836;-76
2022/07/03 12:35:04;;;;;;;;;;;;;;;29.92;26.39;95844.19;10480766;28;1914;-76
2022/07/03 12:40:07;;;;;;;;;;;;;;;29.56;26.64;95835.88;10479721;28;1897;-76
2022/07/03 12:45:11;;;;;;;;;;;;;;;29.92;28.10;95832.31;10478137;28;1691;-77
2022/07/03 12:50:19;;;;;;;;;;;;;;;30.34;26.46;95834.22;10486132;28;1765;-77
2022/07/03 12:55:23;;;;;;;;;;;;;;;30.17;27.17;95826.78;10473413;28;1905;-77
2022/07/03 13:00:26;;;;;;;;;;;;;;;30.40;27.19;95819.56;10478833;28;1785;-76
2022/07/03 13:05:30;;;;;;;;;;;;;;;30.50;26.87;95812.41;10475486;28;1833;-76
2022/07/03 13:10:34;;;;;;;;;;;;;;;30.43;26.55;95801.34;10474582;28;1948;-75
2022/07/03 13:15:37;;;;;;;;;;;;;;;30.49;26.94;95798.94;10476774;28;1989;-75
2022/07/03 13:20:41;;;;;;;;;;;;;;;30.54;27.40;95799.31;10473508;28;1777;-75
2022/07/03 13:25:45;;;;;;;;;;;;;;;30.49;27.12;95799.72;10475398;28;1805;-76
2022/07/03 13:30:49;;;;;;;;;;;;;;;30.59;27.86;95793.34;10472391;28;1778;-76
2022/07/03 13:35:53;;;;;;;;;;;;;;;30.34;27.47;95787.09;10474918;28;1898;-76
2022/07/03 13:40:57;;;;;;;;;;;;;;;30.60;26.90;95797.72;10478739;28;1980;-75
2022/07/03 13:46:01;;;;;;;;;;;;;;;30.43;27.35;95784.69;10470369;28;1883;-76
2022/07/03 13:51:04;;;;;;;;;;;;;;;30.18;26.97;95778.44;10471366;28;1857;-77
2022/07/03 13:56:08;;;;;;;;;;;;;;;30.52;27.15;95779.50;10474991;28;1922;-76
2022/07/03 14:01:11;;;;;;;;;;;;;;;30.84;27.09;95775.81;10468848;28;1873;-75
2022/07/03 14:06:15;;;;;;;;;;;;;;;30.97;26.48;95773.34;10473814;28;1851;-76
2022/07/03 14:11:19;;;;;;;;;;;;;;;31.11;27.19;95760.19;10469709;28;1867;-76
2022/07/03 14:16:23;;;;;;;;;;;;;;;31.26;26.90;95762.88;10472774;28;1975;-76
2022/07/03 14:21:26;;;;;;;;;;;;;;;31.42;25.54;95760.34;10475794;28;1900;-76
2022/07/03 14:37:18;;;;;;;;;;;;;;;31.36;26.53;95748.09;10473881;28;1989;-75
2022/07/03 14:42:21;;;;;;;;;;;;;;;31.45;25.81;95743.66;10473456;28;1757;-76
2022/07/03 14:47:25;;;;;;;;;;;;;;;31.68;26.15;95740.28;10469177;28;1818;-75
2022/07/03 14:52:29;;;;;;;;;;;;;;;31.61;25.69;95748.69;10479710;28;1823;-75
2022/07/03 14:57:34;;;;;;;;;;;;;;;31.67;26.55;95744.25;10487160;28;2067;-76
2022/07/03 15:02:38;;;;;;;;;;;;;;;31.56;25.55;95742.81;10490451;28;1758;-77
2022/07/03 15:07:41;;;;;;;;;;;;;;;31.85;25.52;95737.78;10495680;28;1823;-76
2022/07/03 15:12:45;;;;;;;;;;;;;;;31.59;25.43;95737.19;10475519;28;1877;-75
2022/07/03 15:17:49;;;;;;;;;;;;;;;31.66;25.63;95714.91;10464639;28;2204;-75
2022/07/03 15:22:52;;;;;;;;;;;;;;;31.84;24.92;95719.53;10464163;28;1690;-74
2022/07/03 15:27:56;;;;;;;;;;;;;;;31.71;25.61;95722.00;10468423;28;1766;-76
2022/07/03 15:33:00;;;;;;;;;;;;;;;31.52;26.96;95726.16;10466741;28;1706;-75
2022/07/03 15:38:04;;;;;;;;;;;;;;;32.07;25.05;95714.09;10468272;28;1920;-74
2022/07/03 15:43:07;;;;;;;;;;;;;;;31.67;25.94;95702.56;10459162;28;1915;-75
2022/07/03 15:48:10;;;;;;;;;;;;;;;31.45;25.74;95704.00;10468158;28;1823;-74
2022/07/03 15:53:14;;;;;;;;;;;;;;;31.80;26.27;95694.53;10468881;28;1983;-74
2022/07/03 15:58:17;;;;;;;;;;;;;;;31.72;25.12;95707.69;10469814;28;1820;-75
2022/07/03 16:03:21;;;;;;;;;;;;;;;31.46;25.48;95700.00;10472533;28;1808;-74
2022/07/03 16:08:25;;;;;;;;;;;;;;;31.22;25.05;95694.22;10469927;28;1837;-74
2022/07/03 16:13:29;;;;;;;;;;;;;;;30.97;25.50;95692.84;10468984;28;1981;-74
2022/07/03 16:18:32;;;;;;;;;;;;;;;30.63;26.54;95688.69;10469445;28;1849;-75
2022/07/03 16:23:36;;;;;;;;;;;;;;;30.36;26.88;95688.47;10473695;28;1539;-75
2022/07/03 16:28:40;;;;;;;;;;;;;;;30.13;27.88;95688.94;10469455;28;1710;-74
2022/07/03 16:33:43;;;;;;;;;;;;;;;30.00;28.09;95690.56;10471329;28;1911;-75
2022/07/03 16:38:47;;;;;;;;;;;;;;;29.91;28.80;95690.22;10475601;28;1773;-77
2022/07/03 16:43:51;;;;;;;;;;;;;;;29.67;29.04;95682.75;10464234;28;1907;-75
2022/07/03 16:48:55;;;;;;;;;;;;;;;29.61;28.80;95691.47;10469961;28;1887;-75
2022/07/03 16:53:58;;;;;;;;;;;;;;;29.42;29.05;95689.09;10469694;28;1914;-74
2022/07/03 16:59:01;;;;;;;;;;;;;;;29.26;29.56;95680.41;10479850;28;1966;-74
2022/07/03 17:04:05;;;;;;;;;;;;;;;29.10;29.92;95680.03;10472862;28;2209;-75
2022/07/03 17:09:12;;;;;;;;;;;;;;;29.17;30.00;95680.03;10472536;28;1865;-74
2022/07/03 17:14:16;;;;;;;;;;;;;;;29.14;29.70;95683.56;10477326;28;1979;-76
2022/07/03 17:19:19;;;;;;;;;;;;;;;28.92;30.35;95683.56;10492788;28;1814;-74
2022/07/03 17:24:23;;;;;;;;;;;;;;;28.77;30.61;95688.28;10477274;28;1915;-74
2022/07/03 17:29:27;;;;;;;;;;;;;;;28.77;30.55;95676.44;10489616;28;1893;-74
2022/07/03 17:34:30;;;;;;;;;;;;;;;28.68;30.44;95673.25;10473617;28;1917;-75
2022/07/03 17:39:34;;;;;;;;;;;;;;;28.58;30.51;95679.56;10492355;28;1865;-74
2022/07/03 17:44:37;;;;;;;;;;;;;;;28.52;30.59;95674.41;10472953;28;1927;-74
2022/07/03 17:49:44;;;;;;;;;;;;;;;28.41;30.68;95659.78;10494361;28;1898;-75
2022/07/03 17:54:49;;;;;;;;;;;;;;;28.28;30.69;95661.28;10473284;28;1910;-74
2022/07/03 17:59:52;;;;;;;;;;;;;;;28.12;32.27;95652.53;10480760;28;1758;-75
2022/07/03 18:04:56;;;;;;;;;;;;;;;28.02;31.59;95649.38;10477707;28;1829;-76
2022/07/03 18:09:59;;;;;;;;;;;;;;;27.76;32.78;95652.44;10482515;28;1959;-76
2022/07/03 18:15:03;;;;;;;;;;;;;;;27.65;33.24;95652.34;10475018;28;1979;-72
2022/07/03 18:20:07;;;;;;;;;;;;;;;27.58;33.39;95654.28;10488453;28;1861;-75
2022/07/03 18:25:11;;;;;;;;;;;;;;;27.38;33.79;95649.03;10465616;28;1828;-74
2022/07/03 18:30:14;;;;;;;;;;;;;;;27.24;34.22;95650.91;10476291;28;1824;-75
2022/07/03 18:35:18;;;;;;;;;;;;;;;27.14;34.65;95657.94;10474703;28;2138;-75
2022/07/03 18:40:21;;;;;;;;;;;;;;;26.91;34.84;95647.91;10480457;28;1824;-74
2022/07/03 18:45:24;;;;;;;;;;;;;;;26.70;35.78;95653.22;10507102;28;1892;-75
2022/07/03 18:50:28;;;;;;;;;;;;;;;26.50;36.60;95655.41;10530277;28;1810;-75
2022/07/03 18:55:35;;;;;;;;;;;;;;;26.22;36.97;95650.38;10521620;28;1893;-75
2022/07/03 19:00:39;;;;;;;;;;;;;;;25.93;37.98;95653.97;10479724;28;1854;-74
2022/07/03 19:05:43;;;;;;;;;;;;;;;25.73;38.24;95648.63;10468282;28;2025;-75
2022/07/03 19:10:48;;;;;;;;;;;;;;;25.53;37.90;95652.66;10473848;28;1902;-73
2022/07/03 19:15:52;;;;;;;;;;;;;;;25.39;40.04;95655.22;10480413;28;2097;-73
2022/07/03 19:20:55;;;;;;;;;;;;;;;25.18;40.89;95661.97;10479700;28;1983;-74
2022/07/03 19:25:58;;;;;;;;;;;;;;;24.93;41.76;95666.28;10472666;28;1862;-75
2022/07/03 19:31:07;;;;;;;;;;;;;;;24.71;42.29;95667.88;10469521;28;1890;-74
2022/07/03 19:36:10;;;;;;;;;;;;;;;24.61;42.82;95669.28;10475029;28;1933;-75
2022/07/03 19:41:14;;;;;;;;;;;;;;;24.52;42.57;95671.47;10466814;28;1934;-75
2022/07/03 19:46:17;;;;;;;;;;;25.50;99.90;;;24.38;44.48;95673.97;10470737;28;1857;-73
2022/07/03 19:51:21;;;;;;;;;;;25.40;99.90;;;24.26;45.62;95675.69;10466082;28;1817;-74
2022/07/03 19:56:25;;;;;;;;;;;25.10;99.90;;;24.10;45.66;95677.72;10466759;28;1918;-74
2022/07/03 20:01:28;;;;;;;;;;;;;;;23.88;47.13;95679.28;10467492;28;1841;-74
2022/07/03 20:06:31;;;;;;;;;;;25.00;99.90;;;23.75;47.76;95677.81;10467508;28;1815;-74
2022/07/03 20:11:34;;;;;;;;;;;24.80;99.90;;;23.58;48.21;95681.75;10456513;28;1900;-75
2022/07/03 20:16:37;;;;;;;;;;;24.60;99.90;;;23.43;50.38;95671.63;10470100;28;1996;-74
2022/07/03 20:21:40;;;;;;;;;;;24.50;99.90;;;23.37;50.00;95664.81;10465668;28;1812;-74
2022/07/03 20:26:50;;;;;;;;;;;24.30;99.90;;;23.30;50.96;95661.94;10470345;28;2048;-74
2022/07/03 20:31:53;;;;;;;;;;;;;;;23.20;50.81;95660.53;10480768;28;1893;-75
2022/07/03 20:36:56;;;;;;;;;;;24.10;99.90;;;23.08;51.39;95661.44;10483141;28;1901;-76
2022/07/03 20:42:00;;;;;;;;;;;;;;;23.07;52.61;95679.03;10468715;28;1919;-75
2022/07/03 20:47:03;;;;;;;;;;;;;;;22.96;52.97;95675.22;10482327;28;2003;-75
2022/07/03 20:52:07;;;;;;;;;;;;;;;22.86;53.54;95675.75;10478028;28;1986;-75
2022/07/03 20:57:11;;;;;;;;;;;;;;;22.84;53.19;95689.00;10482090;28;1977;-74
2022/07/03 21:02:14;;;;;;;;;;;;;;;22.86;53.22;95682.06;10476209;28;1897;-75
2022/07/03 21:07:19;;;;;;;;;;;;;;;22.75;53.28;95685.66;10478260;28;1793;-73
2022/07/03 21:12:23;;;;;;;;;;;;;;;22.74;52.85;95701.31;10476294;28;1847;-75
2022/07/03 21:17:27;;;;;;;;;;;;;;;22.60;57.02;95709.16;10476327;28;1994;-75
2022/07/03 21:22:31;;;;;;;;;;;;;;;22.58;56.02;95703.22;10473195;28;1861;-75
2022/07/03 21:27:35;;;;;;;;;;;;;;;22.49;56.12;95699.88;10476945;28;1776;-75
2022/07/03 21:32:39;;;;;;;;;;;;;;;22.43;56.65;95699.34;10471251;28;1863;-75
2022/07/03 21:37:43;;;;;;;;;;;;;;;22.23;58.14;95694.88;10470469;28;1918;-74
2022/07/03 21:42:46;;;;;;;;;;;;;;;22.04;60.32;95698.25;10476406;28;1806;-75
2022/07/03 21:47:50;;;;;;;;;;;;;;;21.83;61.65;95695.72;10473457;28;1844;-74
2022/07/03 21:52:54;;;;;;;;;;;;;;;21.70;62.29;95713.31;10473978;28;1795;-74
2022/07/03 21:57:59;;;;;;;;;;;;;;;21.60;63.22;95706.38;10478088;28;1980;-75
2022/07/03 22:03:02;;;;;;;;;;;;;;;21.61;64.35;95705.22;10474724;28;1765;-73
2022/07/03 22:08:07;;;;;;;;;;;;;;;21.62;64.73;95712.28;10474248;28;1811;-74
2022/07/03 22:13:16;;;;;;;;;;;;;;;21.57;65.42;95710.59;10476503;28;1765;-74
2022/07/03 22:18:20;;;;;;;;;;;;;;;21.48;65.97;95704.44;10477673;28;1914;-75
2022/07/03 22:23:23;;;;;;;;;;;;;;;21.39;67.07;95708.47;10473970;28;1897;-75
2022/07/03 22:28:27;;;;;;;;;;;;;;;21.36;67.42;95692.75;10473482;28;1971;-75
2022/07/03 22:33:32;;;;;;;;;;;;;;;21.35;66.64;95686.47;10473839;28;1798;-75
2022/07/03 22:38:35;;;;;;;;;;;;;;;21.39;66.17;95681.94;10480194;28;1915;-74
2022/07/03 22:43:39;;;;;;;;;;;22.20;99.90;;;21.39;66.56;95681.13;10474819;28;1865;-74
2022/07/03 22:48:42;;;;;;;;;;;;;;;21.40;68.30;95699.91;10476271;28;1802;-74
2022/07/03 22:53:46;;;;;;;;;;;;;;;21.44;69.19;95687.16;10473177;28;1825;-74
2022/07/03 22:58:49;;;;;;;;;;;;;;;21.41;69.49;95679.63;10476012;28;1914;-75
2022/07/03 23:03:53;;;;;;;;;;;;;;;21.34;69.47;95679.41;10473379;28;1911;-74
2022/07/03 23:08:57;;;;;;;;;;;;;;;21.34;69.59;95684.88;10477550;28;1865;-74
2022/07/03 23:14:04;;;;;;;;;;;;;;;21.33;69.36;95686.03;10467166;28;1801;-75
2022/07/03 23:19:08;;;;;;;;;;;;;;;21.38;69.80;95685.81;10476830;28;1921;-74
2022/07/03 23:24:12;;;;;;;;;;;;;;;21.47;69.92;95689.19;10469652;28;1836;-74
2022/07/03 23:29:15;;;;;;;;;;;;;;;21.56;68.82;95700.78;10470862;28;2229;-74
2022/07/03 23:34:23;;;;;;;;;;;;;;;21.57;69.27;95710.59;10481816;28;1910;-75
2022/07/03 23:39:26;;;;;;;;;;;;;;;21.68;68.93;95710.91;10484872;28;1913;-74
2022/07/03 23:44:30;;;;;;;;;;;;;;;21.69;68.82;95726.16;10468441;28;1944;-74
2022/07/03 23:54:55;;;;;;;;;;;;;;;21.92;66.16;95747.56;10469796;28;1910;-74
2022/07/03 23:59:58;;;;;;;;;;;;;;;21.89;66.70;95776.41;10468462;28;1979;-73
